sensor_id;sensor_type;location;lat;lon;timestamp;pressure;altitude;pressure_sealevel;temperature;humidity
51053;BME280;37093;37.716;-122.060;2023-01-26T00:02:21;100917.08;;;21.15;20.41
51053;BME280;37093;37.716;-122.060;2023-01-26T00:04:51;100918.05;;;21.31;20.24
51053;BME280;37093;37.716;-122.060;2023-01-26T00:07:19;100915.18;;;21.67;18.60
51053;BME280;37093;37.716;-122.060;2023-01-26T00:09:47;100914.38;;;21.46;19.18
51053;BME280;37093;37.716;-122.060;2023-01-26T00:12:15;100923.32;;;20.12;22.42
51053;BME280;37093;37.716;-122.060;2023-01-26T00:14:44;100920.50;;;21.05;19.47
51053;BME280;37093;37.716;-122.060;2023-01-26T00:17:12;100922.04;;;20.86;20.50
51053;BME280;37093;37.716;-122.060;2023-01-26T00:19:41;100922.42;;;20.71;20.88
51053;BME280;37093;37.716;-122.060;2023-01-26T00:22:09;100922.64;;;21.05;20.30
51053;BME280;37093;37.716;-122.060;2023-01-26T00:24:38;100916.89;;;20.98;19.83
51053;BME280;37093;37.716;-122.060;2023-01-26T00:27:06;100921.46;;;20.80;20.23
51053;BME280;37093;37.716;-122.060;2023-01-26T00:29:35;100920.00;;;20.83;19.95
51053;BME280;37093;37.716;-122.060;2023-01-26T00:32:04;100919.86;;;21.00;20.72
51053;BME280;37093;37.716;-122.060;2023-01-26T00:34:32;100908.57;;;21.25;19.74
51053;BME280;37093;37.716;-122.060;2023-01-26T00:37:01;100918.30;;;21.08;20.23
51053;BME280;37093;37.716;-122.060;2023-01-26T00:39:29;100918.95;;;21.59;20.60
51053;BME280;37093;37.716;-122.060;2023-01-26T00:41:58;100921.47;;;21.79;20.51
51053;BME280;37093;37.716;-122.060;2023-01-26T00:44:26;100915.83;;;21.33;20.44
51053;BME280;37093;37.716;-122.060;2023-01-26T00:46:55;100915.84;;;21.61;19.80
51053;BME280;37093;37.716;-122.060;2023-01-26T00:49:23;100912.81;;;21.95;20.04
51053;BME280;37093;37.716;-122.060;2023-01-26T00:51:51;100913.77;;;21.17;19.78
51053;BME280;37093;37.716;-122.060;2023-01-26T00:54:20;100907.42;;;21.52;19.55
51053;BME280;37093;37.716;-122.060;2023-01-26T00:56:48;100911.48;;;21.03;20.40
51053;BME280;37093;37.716;-122.060;2023-01-26T00:59:17;100911.33;;;21.15;20.43
51053;BME280;37093;37.716;-122.060;2023-01-26T01:01:45;100916.42;;;21.28;20.48
51053;BME280;37093;37.716;-122.060;2023-01-26T01:04:14;100916.89;;;21.39;19.45
51053;BME280;37093;37.716;-122.060;2023-01-26T01:06:44;100920.92;;;20.85;21.94
51053;BME280;37093;37.716;-122.060;2023-01-26T01:09:13;100919.75;;;21.06;20.91
51053;BME280;37093;37.716;-122.060;2023-01-26T01:11:41;100917.36;;;21.00;21.17
51053;BME280;37093;37.716;-122.060;2023-01-26T01:14:10;100919.65;;;21.05;21.19
51053;BME280;37093;37.716;-122.060;2023-01-26T01:16:38;100914.91;;;20.80;20.60
51053;BME280;37093;37.716;-122.060;2023-01-26T01:19:06;100914.04;;;21.56;19.06
51053;BME280;37093;37.716;-122.060;2023-01-26T01:21:35;100917.84;;;21.26;20.09
51053;BME280;37093;37.716;-122.060;2023-01-26T01:24:04;100912.31;;;21.06;19.08
51053;BME280;37093;37.716;-122.060;2023-01-26T01:26:32;100910.08;;;21.19;20.73
51053;BME280;37093;37.716;-122.060;2023-01-26T01:29:01;100901.62;;;21.28;18.96
51053;BME280;37093;37.716;-122.060;2023-01-26T01:31:30;100906.57;;;21.08;19.90
51053;BME280;37093;37.716;-122.060;2023-01-26T01:33:58;100907.87;;;20.38;20.82
51053;BME280;37093;37.716;-122.060;2023-01-26T01:36:27;100915.40;;;20.73;19.90
51053;BME280;37093;37.716;-122.060;2023-01-26T01:38:55;100921.88;;;20.84;21.77
51053;BME280;37093;37.716;-122.060;2023-01-26T01:41:24;100917.05;;;20.78;19.25
51053;BME280;37093;37.716;-122.060;2023-01-26T01:44:12;100924.61;;;20.18;20.81
51053;BME280;37093;37.716;-122.060;2023-01-26T01:46:44;100920.39;;;20.28;21.51
51053;BME280;37093;37.716;-122.060;2023-01-26T01:49:19;100921.46;;;20.41;21.06
51053;BME280;37093;37.716;-122.060;2023-01-26T01:51:53;100929.26;;;19.93;20.48
51053;BME280;37093;37.716;-122.060;2023-01-26T01:54:26;100928.13;;;20.40;20.70
51053;BME280;37093;37.716;-122.060;2023-01-26T01:56:59;100931.03;;;20.59;19.73
51053;BME280;37093;37.716;-122.060;2023-01-26T01:59:30;100933.55;;;20.56;20.17
51053;BME280;37093;37.716;-122.060;2023-01-26T02:01:59;100926.46;;;20.22;22.53
51053;BME280;37093;37.716;-122.060;2023-01-26T02:04:28;100929.11;;;20.41;20.52
51053;BME280;37093;37.716;-122.060;2023-01-26T02:06:58;100922.94;;;19.92;20.76
51053;BME280;37093;37.716;-122.060;2023-01-26T02:09:31;100925.64;;;20.40;20.32
51053;BME280;37093;37.716;-122.060;2023-01-26T02:12:02;100929.64;;;20.42;21.34
51053;BME280;37093;37.716;-122.060;2023-01-26T02:14:32;100926.35;;;20.23;21.65
51053;BME280;37093;37.716;-122.060;2023-01-26T02:17:02;100936.35;;;20.50;20.85
51053;BME280;37093;37.716;-122.060;2023-01-26T02:19:39;100942.31;;;19.92;20.99
51053;BME280;37093;37.716;-122.060;2023-01-26T02:22:15;100942.36;;;20.28;20.22
51053;BME280;37093;37.716;-122.060;2023-01-26T02:24:49;100938.91;;;19.96;19.01
51053;BME280;37093;37.716;-122.060;2023-01-26T02:27:18;100942.00;;;19.95;19.30
51053;BME280;37093;37.716;-122.060;2023-01-26T02:29:46;100946.30;;;19.92;19.69
51053;BME280;37093;37.716;-122.060;2023-01-26T02:32:15;100950.49;;;19.89;19.80
51053;BME280;37093;37.716;-122.060;2023-01-26T02:34:44;100952.40;;;20.06;19.18
51053;BME280;37093;37.716;-122.060;2023-01-26T02:37:14;100953.18;;;20.07;21.08
51053;BME280;37093;37.716;-122.060;2023-01-26T02:39:46;100946.96;;;20.33;19.04
51053;BME280;37093;37.716;-122.060;2023-01-26T02:42:19;100959.02;;;19.75;20.42
51053;BME280;37093;37.716;-122.060;2023-01-26T02:44:48;100951.68;;;19.87;19.78
51053;BME280;37093;37.716;-122.060;2023-01-26T02:47:17;100956.34;;;19.84;19.90
51053;BME280;37093;37.716;-122.060;2023-01-26T02:49:47;100957.93;;;19.82;19.61
51053;BME280;37093;37.716;-122.060;2023-01-26T02:52:17;100959.19;;;19.43;19.99
51053;BME280;37093;37.716;-122.060;2023-01-26T02:54:45;100962.29;;;19.70;21.53
51053;BME280;37093;37.716;-122.060;2023-01-26T02:57:14;100967.35;;;19.87;22.56
51053;BME280;37093;37.716;-122.060;2023-01-26T02:59:42;100966.39;;;19.91;21.84
51053;BME280;37093;37.716;-122.060;2023-01-26T03:02:11;100968.76;;;19.69;19.48
51053;BME280;37093;37.716;-122.060;2023-01-26T03:04:40;100972.25;;;19.72;20.58
51053;BME280;37093;37.716;-122.060;2023-01-26T03:07:09;100973.28;;;19.64;22.03
51053;BME280;37093;37.716;-122.060;2023-01-26T03:09:37;100972.60;;;19.43;19.55
51053;BME280;37093;37.716;-122.060;2023-01-26T03:12:06;100972.71;;;19.48;19.89
51053;BME280;37093;37.716;-122.060;2023-01-26T03:14:35;100972.72;;;19.32;20.39
51053;BME280;37093;37.716;-122.060;2023-01-26T03:17:03;100970.89;;;19.40;20.19
51053;BME280;37093;37.716;-122.060;2023-01-26T03:19:31;100972.39;;;19.49;20.04
51053;BME280;37093;37.716;-122.060;2023-01-26T03:22:00;100973.58;;;19.12;19.87
51053;BME280;37093;37.716;-122.060;2023-01-26T03:24:29;100970.41;;;19.66;19.00
51053;BME280;37093;37.716;-122.060;2023-01-26T03:26:57;100973.13;;;19.56;18.68
51053;BME280;37093;37.716;-122.060;2023-01-26T03:29:27;100970.77;;;19.25;20.38
51053;BME280;37093;37.716;-122.060;2023-01-26T03:31:55;100973.47;;;19.30;20.20
51053;BME280;37093;37.716;-122.060;2023-01-26T03:34:24;100970.37;;;19.35;21.91
51053;BME280;37093;37.716;-122.060;2023-01-26T03:36:52;100973.22;;;19.54;19.43
51053;BME280;37093;37.716;-122.060;2023-01-26T03:39:21;100980.90;;;19.17;20.47
51053;BME280;37093;37.716;-122.060;2023-01-26T03:41:49;100976.36;;;19.67;20.27
51053;BME280;37093;37.716;-122.060;2023-01-26T03:44:18;100973.64;;;19.69;22.31
51053;BME280;37093;37.716;-122.060;2023-01-26T03:46:46;100971.34;;;19.60;19.97
51053;BME280;37093;37.716;-122.060;2023-01-26T03:49:15;100977.67;;;19.03;20.63
51053;BME280;37093;37.716;-122.060;2023-01-26T03:51:43;100980.20;;;19.25;19.52
51053;BME280;37093;37.716;-122.060;2023-01-26T03:54:12;100986.35;;;18.89;18.99
51053;BME280;37093;37.716;-122.060;2023-01-26T03:56:41;100987.15;;;18.39;21.80
51053;BME280;37093;37.716;-122.060;2023-01-26T03:59:09;100984.56;;;18.76;21.16
51053;BME280;37093;37.716;-122.060;2023-01-26T04:01:39;100981.03;;;18.83;20.28
51053;BME280;37093;37.716;-122.060;2023-01-26T04:04:09;100978.91;;;19.17;20.45
51053;BME280;37093;37.716;-122.060;2023-01-26T04:06:41;100990.07;;;18.56;21.49
51053;BME280;37093;37.716;-122.060;2023-01-26T04:09:10;100996.37;;;18.25;21.42
51053;BME280;37093;37.716;-122.060;2023-01-26T04:11:38;100989.19;;;18.41;21.16
51053;BME280;37093;37.716;-122.060;2023-01-26T04:14:09;100997.51;;;18.49;21.33
51053;BME280;37093;37.716;-122.060;2023-01-26T04:16:37;100994.46;;;18.33;20.60
51053;BME280;37093;37.716;-122.060;2023-01-26T04:19:06;100991.68;;;18.58;21.69
51053;BME280;37093;37.716;-122.060;2023-01-26T04:21:35;100987.76;;;18.19;22.13
51053;BME280;37093;37.716;-122.060;2023-01-26T04:24:04;100985.86;;;16.46;22.51
51053;BME280;37093;37.716;-122.060;2023-01-26T04:26:34;100992.50;;;17.80;22.43
51053;BME280;37093;37.716;-122.060;2023-01-26T04:29:04;101000.99;;;17.42;21.41
51053;BME280;37093;37.716;-122.060;2023-01-26T04:31:33;100998.86;;;17.33;22.22
51053;BME280;37093;37.716;-122.060;2023-01-26T04:34:04;100997.63;;;17.52;22.40
51053;BME280;37093;37.716;-122.060;2023-01-26T04:36:33;100997.01;;;17.64;21.83
51053;BME280;37093;37.716;-122.060;2023-01-26T04:39:01;101002.87;;;17.97;22.44
51053;BME280;37093;37.716;-122.060;2023-01-26T04:41:31;101004.11;;;18.10;22.15
51053;BME280;37093;37.716;-122.060;2023-01-26T04:43:59;101002.13;;;18.54;20.36
51053;BME280;37093;37.716;-122.060;2023-01-26T04:46:28;100997.86;;;17.99;21.52
51053;BME280;37093;37.716;-122.060;2023-01-26T04:48:56;101003.12;;;18.23;21.99
51053;BME280;37093;37.716;-122.060;2023-01-26T04:51:25;100993.61;;;18.45;21.12
51053;BME280;37093;37.716;-122.060;2023-01-26T04:53:53;100996.25;;;17.91;22.10
51053;BME280;37093;37.716;-122.060;2023-01-26T04:56:27;101005.03;;;18.26;21.46
51053;BME280;37093;37.716;-122.060;2023-01-26T04:58:56;100996.45;;;18.61;20.07
51053;BME280;37093;37.716;-122.060;2023-01-26T05:01:25;101001.21;;;18.55;21.31
51053;BME280;37093;37.716;-122.060;2023-01-26T05:03:53;101005.42;;;18.71;21.38
51053;BME280;37093;37.716;-122.060;2023-01-26T05:06:22;101013.05;;;18.56;21.56
51053;BME280;37093;37.716;-122.060;2023-01-26T05:08:51;101006.47;;;18.58;22.03
51053;BME280;37093;37.716;-122.060;2023-01-26T05:11:20;101014.17;;;18.58;22.68
51053;BME280;37093;37.716;-122.060;2023-01-26T05:13:48;101020.59;;;19.14;20.14
51053;BME280;37093;37.716;-122.060;2023-01-26T05:16:17;101027.45;;;18.76;21.12
51053;BME280;37093;37.716;-122.060;2023-01-26T05:18:46;101030.32;;;18.72;22.72
51053;BME280;37093;37.716;-122.060;2023-01-26T05:21:14;101018.01;;;17.82;21.61
51053;BME280;37093;37.716;-122.060;2023-01-26T05:23:43;101026.49;;;17.09;22.02
51053;BME280;37093;37.716;-122.060;2023-01-26T05:26:11;101023.95;;;17.34;21.82
51053;BME280;37093;37.716;-122.060;2023-01-26T05:28:40;101020.36;;;17.28;21.57
51053;BME280;37093;37.716;-122.060;2023-01-26T05:31:08;101031.83;;;17.32;21.47
51053;BME280;37093;37.716;-122.060;2023-01-26T05:33:37;101028.24;;;17.77;21.06
51053;BME280;37093;37.716;-122.060;2023-01-26T05:36:07;101033.91;;;17.63;20.98
51053;BME280;37093;37.716;-122.060;2023-01-26T05:38:36;101032.87;;;18.00;20.71
51053;BME280;37093;37.716;-122.060;2023-01-26T05:41:06;101029.87;;;18.28;20.08
51053;BME280;37093;37.716;-122.060;2023-01-26T05:43:34;101028.99;;;18.24;20.22
51053;BME280;37093;37.716;-122.060;2023-01-26T05:46:03;101031.70;;;18.28;20.56
51053;BME280;37093;37.716;-122.060;2023-01-26T05:48:31;101035.63;;;18.80;19.92
51053;BME280;37093;37.716;-122.060;2023-01-26T05:51:00;101033.79;;;19.05;19.89
51053;BME280;37093;37.716;-122.060;2023-01-26T05:53:28;101039.01;;;18.56;20.05
51053;BME280;37093;37.716;-122.060;2023-01-26T05:55:57;101040.11;;;18.55;19.79
51053;BME280;37093;37.716;-122.060;2023-01-26T05:58:26;101032.03;;;17.70;20.04
51053;BME280;37093;37.716;-122.060;2023-01-26T06:00:55;101031.35;;;17.87;19.91
51053;BME280;37093;37.716;-122.060;2023-01-26T06:03:23;101030.38;;;17.92;20.44
51053;BME280;37093;37.716;-122.060;2023-01-26T06:05:54;101029.42;;;17.80;21.20
51053;BME280;37093;37.716;-122.060;2023-01-26T06:08:22;101031.49;;;17.79;20.06
51053;BME280;37093;37.716;-122.060;2023-01-26T06:10:51;101038.73;;;17.97;20.25
51053;BME280;37093;37.716;-122.060;2023-01-26T06:13:21;101030.02;;;17.88;20.57
51053;BME280;37093;37.716;-122.060;2023-01-26T06:15:49;101025.65;;;17.41;20.75
51053;BME280;37093;37.716;-122.060;2023-01-26T06:18:17;101021.98;;;17.46;20.76
51053;BME280;37093;37.716;-122.060;2023-01-26T06:20:46;101026.02;;;17.49;21.02
51053;BME280;37093;37.716;-122.060;2023-01-26T06:23:14;101020.26;;;17.52;20.60
51053;BME280;37093;37.716;-122.060;2023-01-26T06:25:43;101016.56;;;17.09;20.69
51053;BME280;37093;37.716;-122.060;2023-01-26T06:28:11;101023.34;;;17.19;20.82
51053;BME280;37093;37.716;-122.060;2023-01-26T06:30:40;101028.64;;;17.28;21.23
51053;BME280;37093;37.716;-122.060;2023-01-26T06:33:08;101028.40;;;16.80;21.24
51053;BME280;37093;37.716;-122.060;2023-01-26T06:35:37;101026.89;;;16.98;20.28
51053;BME280;37093;37.716;-122.060;2023-01-26T06:38:05;101030.59;;;17.22;20.76
51053;BME280;37093;37.716;-122.060;2023-01-26T06:40:34;101029.20;;;17.00;21.25
51053;BME280;37093;37.716;-122.060;2023-01-26T06:43:02;101029.39;;;16.99;21.06
51053;BME280;37093;37.716;-122.060;2023-01-26T06:45:31;101037.08;;;16.91;19.81
51053;BME280;37093;37.716;-122.060;2023-01-26T06:47:59;101038.79;;;16.62;19.87
51053;BME280;37093;37.716;-122.060;2023-01-26T06:50:33;101038.28;;;16.66;20.81
51053;BME280;37093;37.716;-122.060;2023-01-26T06:53:03;101034.04;;;16.84;20.89
51053;BME280;37093;37.716;-122.060;2023-01-26T06:55:52;101033.37;;;17.66;20.48
51053;BME280;37093;37.716;-122.060;2023-01-26T06:58:20;101030.96;;;17.43;19.91
51053;BME280;37093;37.716;-122.060;2023-01-26T07:00:49;101036.80;;;17.11;20.38
51053;BME280;37093;37.716;-122.060;2023-01-26T07:03:17;101037.87;;;16.80;20.21
51053;BME280;37093;37.716;-122.060;2023-01-26T07:05:46;101039.05;;;16.63;21.59
51053;BME280;37093;37.716;-122.060;2023-01-26T07:08:14;101050.56;;;17.13;20.42
51053;BME280;37093;37.716;-122.060;2023-01-26T07:10:43;101050.74;;;16.81;20.57
51053;BME280;37093;37.716;-122.060;2023-01-26T07:13:11;101047.54;;;16.79;21.14
51053;BME280;37093;37.716;-122.060;2023-01-26T07:15:40;101057.08;;;16.93;20.12
51053;BME280;37093;37.716;-122.060;2023-01-26T07:18:08;101052.05;;;16.27;21.42
51053;BME280;37093;37.716;-122.060;2023-01-26T07:20:37;101059.22;;;16.39;21.30
51053;BME280;37093;37.716;-122.060;2023-01-26T07:23:05;101060.61;;;16.02;21.95
51053;BME280;37093;37.716;-122.060;2023-01-26T07:25:34;101060.80;;;16.54;21.30
51053;BME280;37093;37.716;-122.060;2023-01-26T07:28:03;101056.65;;;16.39;21.60
51053;BME280;37093;37.716;-122.060;2023-01-26T07:30:31;101052.24;;;16.48;20.99
51053;BME280;37093;37.716;-122.060;2023-01-26T07:33:00;101047.39;;;16.50;21.37
51053;BME280;37093;37.716;-122.060;2023-01-26T07:35:29;101047.22;;;16.21;21.77
51053;BME280;37093;37.716;-122.060;2023-01-26T07:37:58;101040.41;;;15.66;21.91
51053;BME280;37093;37.716;-122.060;2023-01-26T07:40:26;101027.74;;;15.45;22.26
51053;BME280;37093;37.716;-122.060;2023-01-26T07:42:55;101025.03;;;16.27;22.29
51053;BME280;37093;37.716;-122.060;2023-01-26T07:45:24;101020.39;;;16.00;22.27
51053;BME280;37093;37.716;-122.060;2023-01-26T07:47:54;101014.30;;;15.85;22.62
51053;BME280;37093;37.716;-122.060;2023-01-26T07:50:22;101008.47;;;15.58;22.59
51053;BME280;37093;37.716;-122.060;2023-01-26T07:52:51;101001.17;;;15.14;23.15
51053;BME280;37093;37.716;-122.060;2023-01-26T07:55:20;101001.54;;;15.11;23.23
51053;BME280;37093;37.716;-122.060;2023-01-26T07:57:48;101000.94;;;15.44;22.98
51053;BME280;37093;37.716;-122.060;2023-01-26T08:01:12;101000.77;;;15.03;23.58
51053;BME280;37093;37.716;-122.060;2023-01-26T08:03:42;101014.88;;;14.38;22.68
51053;BME280;37093;37.716;-122.060;2023-01-26T08:06:11;100994.66;;;15.98;21.65
51053;BME280;37093;37.716;-122.060;2023-01-26T08:08:40;101011.04;;;15.79;22.54
51053;BME280;37093;37.716;-122.060;2023-01-26T08:11:09;100995.13;;;15.81;22.61
51053;BME280;37093;37.716;-122.060;2023-01-26T08:13:38;100990.73;;;14.38;24.35
51053;BME280;37093;37.716;-122.060;2023-01-26T08:16:08;100981.97;;;15.14;23.73
51053;BME280;37093;37.716;-122.060;2023-01-26T08:18:36;100986.64;;;14.69;24.47
51053;BME280;37093;37.716;-122.060;2023-01-26T08:21:05;100975.10;;;15.15;23.56
51053;BME280;37093;37.716;-122.060;2023-01-26T08:23:34;100988.79;;;14.73;24.10
51053;BME280;37093;37.716;-122.060;2023-01-26T08:26:03;100986.78;;;15.37;23.68
51053;BME280;37093;37.716;-122.060;2023-01-26T08:28:32;101005.64;;;15.46;23.76
51053;BME280;37093;37.716;-122.060;2023-01-26T08:31:03;101012.34;;;15.31;23.35
51053;BME280;37093;37.716;-122.060;2023-01-26T08:33:33;101001.45;;;15.53;23.48
51053;BME280;37093;37.716;-122.060;2023-01-26T08:36:03;101009.33;;;15.68;22.84
51053;BME280;37093;37.716;-122.060;2023-01-26T08:38:32;101006.69;;;15.52;23.71
51053;BME280;37093;37.716;-122.060;2023-01-26T08:41:01;101003.43;;;15.75;23.15
51053;BME280;37093;37.716;-122.060;2023-01-26T08:43:30;101011.91;;;15.02;23.87
51053;BME280;37093;37.716;-122.060;2023-01-26T08:45:59;101005.64;;;15.67;23.61
51053;BME280;37093;37.716;-122.060;2023-01-26T08:48:27;101003.93;;;14.96;23.89
51053;BME280;37093;37.716;-122.060;2023-01-26T08:50:57;100997.61;;;15.23;24.42
51053;BME280;37093;37.716;-122.060;2023-01-26T08:53:28;101013.63;;;15.23;24.39
51053;BME280;37093;37.716;-122.060;2023-01-26T08:56:00;101005.89;;;14.52;24.86
51053;BME280;37093;37.716;-122.060;2023-01-26T08:58:28;101008.12;;;14.46;24.78
51053;BME280;37093;37.716;-122.060;2023-01-26T09:00:57;101001.39;;;14.55;24.75
51053;BME280;37093;37.716;-122.060;2023-01-26T09:03:25;101001.22;;;14.62;25.02
51053;BME280;37093;37.716;-122.060;2023-01-26T09:05:59;101000.53;;;14.48;25.63
51053;BME280;37093;37.716;-122.060;2023-01-26T09:08:28;100994.74;;;14.37;25.49
51053;BME280;37093;37.716;-122.060;2023-01-26T09:10:56;101001.66;;;14.61;24.88
51053;BME280;37093;37.716;-122.060;2023-01-26T09:13:25;101016.38;;;14.44;25.83
51053;BME280;37093;37.716;-122.060;2023-01-26T09:15:53;101011.91;;;13.99;25.62
51053;BME280;37093;37.716;-122.060;2023-01-26T09:18:22;101014.94;;;14.63;25.43
51053;BME280;37093;37.716;-122.060;2023-01-26T09:20:50;101018.16;;;14.11;25.66
51053;BME280;37093;37.716;-122.060;2023-01-26T09:23:19;101022.36;;;14.92;24.47
51053;BME280;37093;37.716;-122.060;2023-01-26T09:25:52;101021.14;;;14.34;25.55
51053;BME280;37093;37.716;-122.060;2023-01-26T09:28:20;101018.34;;;14.27;25.08
51053;BME280;37093;37.716;-122.060;2023-01-26T09:30:49;101020.55;;;15.05;24.84
51053;BME280;37093;37.716;-122.060;2023-01-26T09:33:17;101010.23;;;14.11;25.94
51053;BME280;37093;37.716;-122.060;2023-01-26T09:35:46;101033.44;;;14.27;25.70
51053;BME280;37093;37.716;-122.060;2023-01-26T09:38:15;101022.18;;;14.14;25.60
51053;BME280;37093;37.716;-122.060;2023-01-26T09:40:50;101025.81;;;14.55;25.07
51053;BME280;37093;37.716;-122.060;2023-01-26T09:43:29;101014.57;;;14.46;25.96
51053;BME280;37093;37.716;-122.060;2023-01-26T09:46:07;101006.20;;;14.50;25.25
51053;BME280;37093;37.716;-122.060;2023-01-26T09:48:46;100996.65;;;14.43;25.55
51053;BME280;37093;37.716;-122.060;2023-01-26T09:51:19;100991.56;;;14.04;26.10
51053;BME280;37093;37.716;-122.060;2023-01-26T09:53:54;100997.57;;;13.81;26.06
51053;BME280;37093;37.716;-122.060;2023-01-26T09:56:26;100991.11;;;13.63;26.13
51053;BME280;37093;37.716;-122.060;2023-01-26T09:58:58;101002.78;;;14.96;24.82
51053;BME280;37093;37.716;-122.060;2023-01-26T10:01:32;101000.44;;;14.95;24.28
51053;BME280;37093;37.716;-122.060;2023-01-26T10:04:11;101000.95;;;14.62;24.69
51053;BME280;37093;37.716;-122.060;2023-01-26T10:06:42;101011.82;;;15.08;25.03
51053;BME280;37093;37.716;-122.060;2023-01-26T10:09:15;101006.09;;;15.24;24.57
51053;BME280;37093;37.716;-122.060;2023-01-26T10:11:47;101015.28;;;14.67;24.04
51053;BME280;37093;37.716;-122.060;2023-01-26T10:14:20;101025.69;;;14.66;25.08
51053;BME280;37093;37.716;-122.060;2023-01-26T10:16:53;101037.84;;;14.96;24.27
51053;BME280;37093;37.716;-122.060;2023-01-26T10:19:31;101060.93;;;14.74;25.34
51053;BME280;37093;37.716;-122.060;2023-01-26T10:22:06;101067.08;;;15.42;24.72
51053;BME280;37093;37.716;-122.060;2023-01-26T10:24:38;101092.35;;;15.92;24.48
51053;BME280;37093;37.716;-122.060;2023-01-26T10:27:11;101096.20;;;16.24;24.24
51053;BME280;37093;37.716;-122.060;2023-01-26T10:29:39;101099.37;;;16.40;23.51
51053;BME280;37093;37.716;-122.060;2023-01-26T10:32:12;101088.13;;;17.01;22.96
51053;BME280;37093;37.716;-122.060;2023-01-26T10:34:41;101095.79;;;17.01;22.15
51053;BME280;37093;37.716;-122.060;2023-01-26T10:37:19;101094.53;;;17.49;21.84
51053;BME280;37093;37.716;-122.060;2023-01-26T10:40:06;101088.03;;;17.04;23.31
51053;BME280;37093;37.716;-122.060;2023-01-26T10:42:35;101088.34;;;17.01;23.30
51053;BME280;37093;37.716;-122.060;2023-01-26T10:45:24;101092.58;;;16.12;23.54
51053;BME280;37093;37.716;-122.060;2023-01-26T10:48:04;101089.34;;;16.68;23.40
51053;BME280;37093;37.716;-122.060;2023-01-26T10:50:34;101091.52;;;16.97;23.18
51053;BME280;37093;37.716;-122.060;2023-01-26T10:53:03;101100.31;;;17.09;23.68
51053;BME280;37093;37.716;-122.060;2023-01-26T10:55:33;101092.66;;;16.96;24.22
51053;BME280;37093;37.716;-122.060;2023-01-26T10:58:02;101094.15;;;16.49;23.66
51053;BME280;37093;37.716;-122.060;2023-01-26T11:00:32;101096.03;;;16.91;23.51
51053;BME280;37093;37.716;-122.060;2023-01-26T11:03:07;101100.66;;;16.70;23.93
51053;BME280;37093;37.716;-122.060;2023-01-26T11:05:43;101108.17;;;16.46;23.90
51053;BME280;37093;37.716;-122.060;2023-01-26T11:08:31;101107.69;;;16.49;24.43
51053;BME280;37093;37.716;-122.060;2023-01-26T11:11:00;101111.47;;;16.31;23.53
51053;BME280;37093;37.716;-122.060;2023-01-26T11:13:30;101109.80;;;16.54;24.44
51053;BME280;37093;37.716;-122.060;2023-01-26T11:16:03;101101.47;;;16.17;24.00
51053;BME280;37093;37.716;-122.060;2023-01-26T11:18:44;101093.56;;;16.17;23.87
51053;BME280;37093;37.716;-122.060;2023-01-26T11:21:20;101094.89;;;15.93;24.33
51053;BME280;37093;37.716;-122.060;2023-01-26T11:23:59;101102.44;;;15.57;26.17
51053;BME280;37093;37.716;-122.060;2023-01-26T11:26:50;101100.49;;;15.37;25.54
51053;BME280;37093;37.716;-122.060;2023-01-26T11:29:38;101097.07;;;15.10;24.75
51053;BME280;37093;37.716;-122.060;2023-01-26T11:32:15;101099.40;;;15.07;26.13
51053;BME280;37093;37.716;-122.060;2023-01-26T11:34:54;101097.79;;;15.14;25.18
51053;BME280;37093;37.716;-122.060;2023-01-26T11:37:38;101097.57;;;13.43;28.41
51053;BME280;37093;37.716;-122.060;2023-01-26T11:40:19;101103.20;;;14.27;26.88
51053;BME280;37093;37.716;-122.060;2023-01-26T11:43:01;101103.18;;;14.16;26.60
51053;BME280;37093;37.716;-122.060;2023-01-26T11:45:49;101105.25;;;15.40;25.73
51053;BME280;37093;37.716;-122.060;2023-01-26T11:48:28;101093.09;;;15.13;25.87
51053;BME280;37093;37.716;-122.060;2023-01-26T11:51:05;101094.32;;;15.56;24.79
51053;BME280;37093;37.716;-122.060;2023-01-26T11:53:49;101102.57;;;15.44;25.51
51053;BME280;37093;37.716;-122.060;2023-01-26T11:56:30;101100.79;;;15.95;25.16
51053;BME280;37093;37.716;-122.060;2023-01-26T11:59:05;101114.66;;;14.96;26.52
51053;BME280;37093;37.716;-122.060;2023-01-26T12:01:40;101123.54;;;14.66;25.92
51053;BME280;37093;37.716;-122.060;2023-01-26T12:04:16;101113.38;;;14.67;26.82
51053;BME280;37093;37.716;-122.060;2023-01-26T12:06:47;101116.36;;;14.04;26.87
51053;BME280;37093;37.716;-122.060;2023-01-26T12:09:20;101115.31;;;14.44;27.07
51053;BME280;37093;37.716;-122.060;2023-01-26T12:11:56;101109.54;;;14.73;27.51
51053;BME280;37093;37.716;-122.060;2023-01-26T12:14:30;101117.12;;;14.96;26.92
51053;BME280;37093;37.716;-122.060;2023-01-26T12:17:17;101124.28;;;14.35;26.93
51053;BME280;37093;37.716;-122.060;2023-01-26T12:19:56;101127.26;;;14.48;26.89
51053;BME280;37093;37.716;-122.060;2023-01-26T12:22:32;101124.02;;;15.26;25.58
51053;BME280;37093;37.716;-122.060;2023-01-26T12:25:13;101129.75;;;14.62;27.27
51053;BME280;37093;37.716;-122.060;2023-01-26T12:27:52;101132.80;;;15.06;26.52
51053;BME280;37093;37.716;-122.060;2023-01-26T12:30:30;101139.19;;;15.18;26.35
51053;BME280;37093;37.716;-122.060;2023-01-26T12:33:01;101136.73;;;15.26;25.39
51053;BME280;37093;37.716;-122.060;2023-01-26T12:35:41;101126.54;;;15.93;24.98
51053;BME280;37093;37.716;-122.060;2023-01-26T12:38:17;101123.06;;;15.28;25.86
51053;BME280;37093;37.716;-122.060;2023-01-26T12:40:57;101133.59;;;14.90;26.51